Latest Weather Observations for Cape Willoughby

IDS60801

Issued at 1:31 pm CDT Tuesday 28 February 2017 (issued every 30 minutes, with the page automatically refreshed every 10 minutes)

About weather observations | Map of weather stations | Latest weather observations for SA | Other Formats
Station Details ID: 022803 Name: CAPE WILLOUGHBY Lat: -35.84 Lon: 138.13 Height: 55.0 m
Data from the previous 72 hours. | See also: Recent months at Cape Willoughby
Date/Time
CDT
Temp
°C
App
Temp
°C
Dew
Point
°C
Rel
Hum
%
Delta-T
°C
Wind Press
QNH
hPa
Press
MSL
hPa
Rain since
9am
mm
Dir  Spd
km/h
Gust
km/h
Spd
kts
Gust
kts
28/01:30pm 25.4 27.4 17.8 62 4.8 SSE 4 6 2 3 1017.2 1017.1 0.0
28/01:00pm 23.8 24.9 16.6 64 4.4 S 6 11 3 6 1017.4 1017.3 0.0
28/12:30pm 24.1 25.3 15.9 60 5.0 SE 4 9 2 5 1017.4 1017.3 0.0
28/12:00pm 23.3 24.3 16.8 67 4.0 SSW 7 13 4 7 1017.7 1017.6 0.0
28/11:30am 22.8 24.3 16.6 68 3.8 SE 4 7 2 4 1017.8 1017.7 0.0
28/11:00am 22.6 24.4 17.3 72 3.3 SSE 4 6 2 3 1017.9 1017.8 0.0
28/10:30am 22.5 24.2 17.2 72 3.3 ESE 4 6 2 3 1017.8 1017.7 0.0
28/10:00am 22.0 23.6 16.9 73 3.1 ESE 4 7 2 4 1017.7 1017.6 0.0
28/09:30am 21.1 22.8 17.1 78 2.4 SE 4 7 2 4 1017.6 1017.5 0.0
28/09:00am 21.8 24.1 17.6 77 2.6 E 2 6 1 3 1017.6 1017.5 -
28/08:30am 20.9 23.3 16.9 78 2.4 CALM 0 0 0 0 1017.6 1017.5 -
28/08:00am 20.0 22.5 17.2 84 1.7 CALM 0 0 0 0 1017.5 1017.4 -
28/07:30am 19.2 21.5 16.8 86 1.4 CALM 0 2 0 1 1017.2 1017.1 -
28/07:00am 19.2 21.2 17.0 87 1.3 WSW 2 6 1 3 1017.0 1016.9 -
28/06:30am 18.6 19.3 17.1 91 0.9 WSW 9 13 5 7 1016.6 1016.5 -
28/06:00am 18.5 17.8 17.3 93 0.7 SW 17 19 9 10 1016.5 1016.4 -
28/05:30am 18.4 17.3 17.4 94 0.6 SW 19 22 10 12 1016.4 1016.3 -
28/05:00am 18.6 17.4 17.6 94 0.6 SW 20 26 11 14 1016.3 1016.2 -
28/04:30am 18.7 18.2 17.7 94 0.6 SW 17 19 9 10 1016.4 1016.3 -
28/04:00am 18.6 17.6 17.6 94 0.6 SW 19 20 10 11 1016.5 1016.4 -
28/03:30am 18.5 17.9 17.5 94 0.6 SW 17 20 9 11 1016.6 1016.5 -
28/03:00am 18.4 17.7 17.4 94 0.6 SSW 17 19 9 10 1016.9 1016.8 0.0
28/02:30am 18.3 17.0 17.3 94 0.6 SSW 20 24 11 13 1017.3 1017.2 -
28/02:00am 18.2 16.1 17.2 94 0.6 SSW 24 30 13 16 1017.6 1017.5 -
28/01:30am 18.3 16.6 17.3 94 0.6 SW 22 26 12 14 1018.1 1018.0 -
28/01:00am 18.4 16.4 17.4 94 0.6 SW 24 26 13 14 1018.2 1018.1 -
28/12:30am 18.3 17.6 17.3 94 0.6 SSW 17 20 9 11 1018.3 1018.2 -
28/12:00am 18.3 18.0 17.3 94 0.6 SSW 15 17 8 9 1018.4 1018.3 -
 
Date/Time
CDT
Temp
°C
App
Temp
°C
Dew
Point
°C
Rel
Hum
%
Delta-T
°C
Wind Press
QNH
hPa
Press
MSL
hPa
Rain since
9am
mm
Dir  Spd
km/h
Gust
km/h
Spd
kts
Gust
kts
27/11:30pm 18.3 18.4 17.5 95 0.5 SSW 13 15 7 8 1018.6 1018.5 -
27/11:00pm 18.2 19.0 17.2 94 0.6 S 9 13 5 7 1018.6 1018.5 -
27/10:30pm 18.1 18.5 17.3 95 0.5 S 11 15 6 8 1018.7 1018.6 -
27/10:00pm 17.9 18.2 17.1 95 0.5 S 11 13 6 7 1018.7 1018.6 -
27/09:30pm 17.7 16.8 16.9 95 0.5 S 17 20 9 11 1018.4 1018.3 -
27/09:00pm 17.6 16.3 16.8 95 0.5 S 19 24 10 13 1017.9 1017.8 -
27/08:30pm 17.9 15.3 16.9 94 0.6 SSW 26 32 14 17 1017.4 1017.3 -
27/08:00pm 18.2 15.3 17.0 93 0.7 SSW 28 32 15 17 1017.0 1016.9 -
27/07:30pm 18.5 16.0 17.0 91 0.9 SSW 26 30 14 16 1017.0 1016.9 -
27/07:00pm 18.9 17.7 17.4 91 0.9 SSW 20 28 11 15 1017.2 1017.1 -
27/06:30pm 18.9 17.8 17.4 91 0.9 S 19 26 10 14 1017.2 1017.1 -
27/06:00pm 19.1 18.4 17.4 90 1.0 S 17 22 9 12 1017.3 1017.2 0.0
27/05:30pm 19.4 18.4 17.5 89 1.2 S 19 22 10 12 1017.4 1017.3 0.0
27/05:00pm 19.6 18.4 17.6 88 1.2 S 20 24 11 13 1017.4 1017.3 0.0
27/04:30pm 19.9 19.0 17.7 87 1.4 S 19 24 10 13 1017.6 1017.5 0.0
27/04:00pm 20.5 20.9 18.1 86 1.5 SSE 13 19 7 10 1017.8 1017.7 0.0
27/03:30pm 20.3 20.7 17.3 83 1.8 SSE 11 13 6 7 1017.9 1017.8 0.0
27/03:00pm 20.2 20.8 17.6 85 1.6 SSE 11 15 6 8 1018.1 1018.0 0.0
27/02:30pm 20.4 20.5 17.4 83 1.8 SE 13 15 7 8 1018.3 1018.2 0.0
27/02:00pm 20.0 20.3 17.8 87 1.4 SSE 13 15 7 8 1018.4 1018.3 0.0
27/01:30pm 19.9 20.4 17.5 86 1.5 SSE 11 15 6 8 1018.6 1018.5 0.0
27/01:00pm 20.9 21.2 17.9 83 1.9 SE 13 17 7 9 1018.9 1018.8 0.0
27/12:30pm 19.7 20.2 17.5 87 1.3 SSE 11 15 6 8 1019.1 1019.0 0.0
27/12:00pm 19.6 19.6 17.2 86 1.5 SSE 13 17 7 9 1019.3 1019.2 0.0
27/11:30am 19.6 20.1 17.4 87 1.3 SSE 11 15 6 8 1019.4 1019.3 0.0
27/11:00am 19.1 19.4 17.1 88 1.2 SSE 11 15 6 8 1019.3 1019.2 0.0
27/10:30am 19.1 19.4 17.1 88 1.2 SSE 11 15 6 8 1019.4 1019.3 0.0
27/10:00am 19.0 19.7 17.0 88 1.2 SSE 9 13 5 7 1019.4 1019.3 0.0
27/09:30am 19.0 20.0 16.8 87 1.3 SSE 7 9 4 5 1019.4 1019.3 0.0
27/09:00am 19.4 20.5 16.6 84 1.7 ESE 6 7 3 4 1019.4 1019.3 -
27/08:30am 19.1 20.1 16.9 87 1.3 E 7 9 4 5 1019.3 1019.2 -
27/08:00am 18.5 19.5 16.8 90 1.0 E 7 9 4 5 1019.2 1019.1 -
27/07:30am 17.7 18.1 16.4 92 0.8 E 9 11 5 6 1019.3 1019.2 -
27/07:00am 17.4 17.7 16.1 92 0.8 ESE 9 11 5 6 1019.1 1019.0 -
27/06:30am 17.2 17.4 15.7 91 0.9 ESE 9 9 5 5 1019.0 1018.9 -
27/06:00am 17.2 17.8 15.7 91 0.9 ESE 7 9 4 5 1018.8 1018.7 -
27/05:30am 17.3 17.8 15.6 90 1.0 E 7 9 4 5 1018.7 1018.6 -
27/05:00am 17.3 17.8 15.6 90 1.0 E 7 9 4 5 1018.7 1018.6 -
27/04:30am 17.3 17.8 15.6 90 1.0 ESE 7 9 4 5 1018.7 1018.6 -
27/04:00am 17.3 16.6 15.5 89 1.1 E 13 15 7 8 1018.9 1018.8 -
27/03:30am 17.4 16.3 15.4 88 1.2 E 15 17 8 9 1019.1 1019.0 -
27/03:00am 17.4 - 15.0 86 1.4 - - - - - 1019.3 1019.2 -
27/02:30am 17.5 15.3 15.0 85 1.5 E 20 26 11 14 1019.4 1019.3 -
27/02:00am 17.4 15.4 14.9 85 1.5 ESE 19 26 10 14 1019.7 1019.6 -
27/01:30am 17.4 15.7 14.7 84 1.6 ESE 17 24 9 13 1020.0 1019.8 -
27/01:00am 17.3 15.5 14.4 83 1.7 ESE 17 22 9 12 1020.1 1019.9 -
27/12:30am 17.3 15.0 14.2 82 1.8 ESE 19 24 10 13 1020.1 1019.9 -
27/12:00am 17.4 15.2 14.3 82 1.8 SE 19 22 10 12 1020.1 1019.9 0.0
 
Date/Time
CDT
Temp
°C
App
Temp
°C
Dew
Point
°C
Rel
Hum
%
Delta-T
°C
Wind Press
QNH
hPa
Press
MSL
hPa
Rain since
9am
mm
Dir  Spd
km/h
Gust
km/h
Spd
kts
Gust
kts
26/11:30pm 17.5 15.3 14.4 82 1.8 SE 19 24 10 13 1020.3 1020.1 0.0
26/11:00pm 17.8 15.7 14.7 82 1.8 SE 19 24 10 13 1020.3 1020.1 0.0
26/10:30pm 17.5 15.0 14.2 81 1.9 SE 20 28 11 15 1020.3 1020.1 0.0
26/10:00pm 17.7 15.4 14.6 82 1.8 SE 20 28 11 15 1020.4 1020.2 0.0
26/09:30pm 17.5 14.6 14.0 80 2.0 SE 22 28 12 15 1020.2 1020.0 0.0
26/09:00pm 17.6 15.2 14.3 81 1.9 SSE 20 28 11 15 1019.8 1019.7 0.0
26/08:30pm 17.6 14.7 14.1 80 2.0 SE 22 28 12 15 1019.6 1019.5 0.0
26/08:00pm 17.6 15.3 14.1 80 2.0 SSE 19 24 10 13 1019.4 1019.3 0.0
26/07:30pm 17.6 15.2 13.9 79 2.1 SSE 19 26 10 14 1019.4 1019.3 0.0
26/07:00pm 17.8 15.6 14.3 80 2.0 SSE 19 24 10 13 1019.3 1019.2 0.0
26/06:30pm 17.9 15.6 14.0 78 2.2 SSE 19 24 10 13 1019.1 1019.0 0.0
26/06:00pm 18.3 16.0 14.0 76 2.5 SSE 19 24 10 13 1019.0 1018.9 0.0
26/05:30pm 18.2 15.6 13.3 73 2.8 SSE 19 24 10 13 1019.1 1019.0 0.0
26/05:00pm 18.7 17.0 13.6 72 2.9 SE 15 22 8 12 1019.0 1018.9 0.0
26/04:30pm 19.2 17.0 13.4 69 3.3 SE 17 20 9 11 1019.0 1018.9 0.0
26/04:00pm 19.5 17.7 13.4 68 3.5 SE 15 19 8 10 1019.1 1019.0 0.0
26/03:30pm 18.9 17.2 12.4 66 3.6 ESE 13 20 7 11 1019.3 1019.2 0.0
26/03:00pm 19.5 17.4 12.5 64 3.9 SE 15 22 8 12 1019.6 1019.5 0.0
26/02:30pm 19.4 17.3 12.4 64 3.9 ESE 15 19 8 10 1019.8 1019.7 0.0
26/02:00pm 19.1 17.2 11.7 62 4.1 ESE 13 19 7 10 1020.2 1020.0 0.0
26/01:30pm 19.2 17.4 12.2 64 3.9 ESE 13 15 7 8 1020.4 1020.2 0.0
26/01:00pm 19.0 16.7 11.8 63 4.0 ESE 15 19 8 10 1020.6 1020.4 0.0
26/12:30pm 18.9 16.6 11.7 63 4.0 SE 15 19 8 10 1020.8 1020.6 0.0
26/12:00pm 18.9 16.7 12.2 65 3.7 ESE 15 19 8 10 1021.0 1020.8 0.0
26/11:30am 18.5 16.2 11.8 65 3.7 ESE 15 20 8 11 1021.3 1021.1 0.0
26/11:00am 18.1 15.3 11.2 64 3.8 ESE 17 22 9 12 1021.5 1021.3 0.0
26/10:30am 17.7 14.9 11.3 66 3.5 ESE 17 22 9 12 1021.6 1021.4 0.0
26/10:00am 17.4 14.2 11.2 67 3.4 ESE 19 24 10 13 1021.8 1021.6 0.0
26/09:30am 17.1 13.6 10.9 67 3.3 ESE 20 26 11 14 1021.8 1021.6 0.0
26/09:00am 16.1 12.5 10.6 70 2.9 ESE 20 28 11 15 1021.8 1021.6 -
26/08:30am 16.0 12.5 11.0 72 2.7 ESE 20 28 11 15 1021.6 1021.4 -
26/08:00am 15.7 11.4 10.7 72 2.7 ESE 24 32 13 17 1021.5 1021.3 -
26/07:30am 15.4 11.1 10.8 74 2.4 ESE 24 30 13 16 1021.4 1021.2 -
26/07:00am 15.6 11.9 11.4 76 2.3 ESE 22 32 12 17 1021.1 1020.9 -
26/06:30am 15.1 11.5 10.5 74 2.4 ESE 20 26 11 14 1021.2 1021.0 -
26/06:00am 15.2 11.4 11.0 76 2.2 ESE 22 30 12 16 1021.1 1020.9 -
26/05:30am 15.3 11.2 11.3 77 2.1 ESE 24 30 13 16 1020.9 1020.7 -
26/05:00am 15.2 11.0 11.0 76 2.2 ESE 24 32 13 17 1021.0 1020.8 -
26/04:30am 15.2 10.5 10.8 75 2.3 ESE 26 32 14 17 1021.0 1020.8 -
26/04:00am 15.3 10.3 10.9 75 2.3 ESE 28 35 15 19 1021.2 1021.0 -
26/03:30am 15.4 10.1 11.2 76 2.2 ESE 30 39 16 21 1021.4 1021.2 -
26/03:00am 15.8 10.8 12.2 79 2.0 ESE 30 37 16 20 1021.5 1021.3 -
26/02:30am 15.8 10.3 11.8 77 2.2 ESE 32 39 17 21 1021.6 1021.4 -
26/02:00am 16.0 10.1 12.4 79 2.0 ESE 35 41 19 22 1021.8 1021.6 -
26/01:30am 16.0 10.0 12.2 78 2.1 SE 35 43 19 23 1022.0 1021.8 -
26/01:00am 15.9 9.0 11.5 75 2.4 SE 39 46 21 25 1022.3 1022.1 -
26/12:30am 15.8 9.1 11.0 73 2.6 SE 37 43 20 23 1022.5 1022.3 -
26/12:00am 16.0 9.5 11.8 76 2.3 SE 37 46 20 25 1022.7 1022.5 -
 
Date/Time
CDT
Temp
°C
App
Temp
°C
Dew
Point
°C
Rel
Hum
%
Delta-T
°C
Wind Press
QNH
hPa
Press
MSL
hPa
Rain since
9am
mm
Dir  Spd
km/h
Gust
km/h
Spd
kts
Gust
kts
25/11:30pm 15.8 9.0 10.8 72 2.7 SE 37 46 20 25 1023.0 1022.8 -
25/11:00pm 16.1 9.5 11.5 74 2.5 SE 37 46 20 25 1023.0 1022.8 -
25/10:30pm 16.0 8.6 11.2 73 2.6 SE 41 48 22 26 1023.2 1023.0 -
25/10:00pm 16.2 9.7 11.6 74 2.5 SE 37 46 20 25 1023.3 1023.1 -
25/09:30pm 16.1 9.2 11.5 74 2.5 SSE 39 46 21 25 1023.6 1023.4 -
25/09:00pm 16.0 8.9 11.0 72 2.7 SSE 39 46 21 25 1023.1 1022.9 0.0
25/08:30pm 16.0 8.8 10.7 71 2.8 SSE 39 48 21 26 1023.0 1022.8 -
25/08:00pm 16.1 10.1 10.8 71 2.8 SSE 33 43 18 23 1023.4 1023.2 -
25/07:30pm 16.3 10.0 11.2 72 2.7 SSE 35 44 19 24 1023.1 1022.9 -
25/07:00pm 16.4 10.4 10.7 69 3.0 SSE 33 46 18 25 1023.0 1022.8 -
25/06:30pm 16.9 10.7 11.4 70 3.0 SSE 35 44 19 24 1023.2 1023.0 -
25/06:00pm 16.9 10.8 11.6 71 2.9 SE 35 48 19 26 1023.2 1023.0 -
25/05:30pm 17.0 10.9 11.9 72 2.8 SE 35 44 19 24 1023.4 1023.2 -
25/05:00pm 17.3 11.4 12.4 73 2.7 SSE 35 43 19 23 1023.6 1023.4 -
25/04:30pm 17.4 11.9 12.3 72 2.8 SSE 33 41 18 22 1023.9 1023.7 -
25/04:00pm 17.5 12.4 10.6 64 3.7 SSE 28 35 15 19 1024.2 1024.0 -
25/03:30pm 17.5 12.1 9.4 59 4.2 SSE 28 35 15 19 1024.5 1024.3 -
25/03:00pm 17.9 13.5 11.7 67 3.4 SSE 26 33 14 18 1024.9 1024.7 -
25/02:30pm 17.4 12.2 10.1 62 3.9 SSE 28 33 15 18 1025.2 1025.0 -
25/02:00pm 18.6 13.3 11.2 62 4.0 SE 30 35 16 19 1025.5 1025.3 -

Other Formats:

Comma delimited format used in spreadsheet applications
http://www.bom.gov.au/fwo/IDS60801/IDS60801.94822.axf

JavaScript Object Notation format (JSON) in row-major order
http://www.bom.gov.au/fwo/IDS60801/IDS60801.94822.json